createdAt,value
2016-12-28T00:00:28.627Z,17.44
2016-12-28T00:01:09.206Z,17.46
2016-12-28T00:01:49.755Z,17.49
2016-12-28T00:02:30.317Z,17.46
2016-12-28T00:03:10.910Z,17.46
2016-12-28T00:03:51.505Z,17.52
2016-12-28T00:04:32.084Z,17.42
2016-12-28T00:05:12.683Z,17.51
2016-12-28T00:05:53.249Z,17.51
2016-12-28T00:06:33.817Z,17.41
2016-12-28T00:07:14.391Z,17.48
2016-12-28T00:07:54.971Z,17.51
2016-12-28T00:08:35.550Z,17.48
2016-12-28T00:09:16.131Z,17.49
2016-12-28T00:09:56.713Z,17.54
2016-12-28T00:10:37.287Z,17.56
2016-12-28T00:11:17.853Z,17.57
2016-12-28T00:11:58.411Z,17.56
2016-12-28T00:12:38.983Z,17.54
2016-12-28T00:13:19.566Z,17.52
2016-12-28T00:14:00.137Z,17.44
2016-12-28T00:14:40.720Z,17.57
2016-12-28T00:15:21.289Z,17.57
2016-12-28T00:16:01.863Z,17.46
2016-12-28T00:16:42.443Z,17.54
2016-12-28T00:17:23.018Z,17.57
2016-12-28T00:18:03.592Z,17.59
2016-12-28T00:18:44.174Z,17.56
2016-12-28T00:19:24.755Z,17.57
2016-12-28T00:20:05.311Z,17.49
2016-12-28T00:20:45.900Z,17.6
2016-12-28T00:21:26.480Z,17.6
2016-12-28T00:22:07.057Z,17.57
2016-12-28T00:22:47.631Z,17.59
2016-12-28T00:23:28.199Z,17.54
2016-12-28T00:24:08.779Z,17.54
2016-12-28T00:24:49.350Z,17.57
2016-12-28T00:25:29.931Z,17.56
2016-12-28T00:26:10.502Z,17.6
2016-12-28T00:26:51.071Z,17.54
2016-12-28T00:27:31.658Z,17.57
2016-12-28T00:28:12.230Z,17.6
2016-12-28T00:28:52.792Z,17.54
2016-12-28T00:29:33.359Z,17.59
2016-12-28T00:30:13.921Z,17.54
2016-12-28T00:30:54.492Z,17.54
2016-12-28T00:31:35.059Z,17.57
2016-12-28T00:32:15.636Z,17.56
2016-12-28T00:32:56.223Z,17.63
2016-12-28T00:33:36.805Z,17.56
2016-12-28T00:34:17.379Z,17.51
2016-12-28T00:34:57.968Z,17.59
2016-12-28T00:35:38.538Z,17.51
2016-12-28T00:36:19.123Z,17.57
2016-12-28T00:36:59.700Z,17.54
2016-12-28T00:37:40.263Z,17.65
2016-12-28T00:38:20.854Z,17.57
2016-12-28T00:39:01.435Z,17.56
2016-12-28T00:39:42.009Z,17.52
2016-12-28T00:40:22.580Z,17.56
2016-12-28T00:41:03.166Z,17.57
2016-12-28T00:41:43.760Z,17.56
2016-12-28T00:42:24.340Z,17.54
2016-12-28T00:43:04.921Z,17.56
2016-12-28T00:43:45.502Z,17.59
2016-12-28T00:44:26.069Z,17.63
2016-12-28T00:45:06.647Z,17.59
2016-12-28T00:45:47.226Z,17.59
2016-12-28T00:46:27.798Z,17.54
2016-12-28T00:47:08.379Z,17.59
2016-12-28T00:47:48.949Z,17.56
2016-12-28T00:48:29.520Z,17.59
2016-12-28T00:49:10.101Z,17.59
2016-12-28T00:49:50.661Z,17.63
2016-12-28T00:50:31.236Z,17.6
2016-12-28T00:51:11.805Z,17.6
2016-12-28T00:51:52.378Z,17.64
2016-12-28T00:52:32.959Z,17.6
2016-12-28T00:53:13.546Z,17.59
2016-12-28T00:53:54.127Z,17.57
2016-12-28T00:54:34.696Z,17.63
2016-12-28T00:55:15.273Z,17.59
2016-12-28T00:55:55.858Z,17.65
2016-12-28T00:56:36.422Z,17.64
2016-12-28T00:57:16.999Z,17.57
2016-12-28T00:57:57.576Z,17.63
2016-12-28T00:58:38.147Z,17.59
2016-12-28T00:59:18.726Z,17.54
2016-12-28T00:59:59.301Z,17.57
2016-12-28T01:00:39.874Z,17.63
2016-12-28T01:01:20.448Z,17.6
2016-12-28T01:02:01.018Z,17.56
2016-12-28T01:02:41.589Z,17.56
2016-12-28T01:03:22.175Z,17.65
2016-12-28T01:04:02.749Z,17.63
2016-12-28T01:04:43.322Z,17.6
2016-12-28T01:05:23.900Z,17.63
2016-12-28T01:06:04.494Z,17.63
2016-12-28T01:06:45.070Z,17.57
2016-12-28T01:07:25.656Z,17.65
2016-12-28T01:08:06.222Z,17.59
2016-12-28T01:08:46.788Z,17.6
2016-12-28T01:09:27.356Z,17.6
2016-12-28T01:10:07.933Z,17.63
2016-12-28T01:10:48.514Z,17.64
2016-12-28T01:11:29.093Z,17.65
2016-12-28T01:12:09.670Z,17.68
2016-12-28T01:12:50.255Z,17.59
2016-12-28T01:13:30.834Z,17.6
2016-12-28T01:14:11.412Z,17.6
2016-12-28T01:14:51.984Z,17.59
2016-12-28T01:15:32.559Z,17.63
2016-12-28T01:16:13.140Z,17.56
2016-12-28T01:16:53.712Z,17.65
2016-12-28T01:17:34.284Z,17.57
2016-12-28T01:18:14.862Z,17.64
2016-12-28T01:18:55.450Z,17.63
2016-12-28T01:19:36.008Z,17.63
2016-12-28T01:20:16.582Z,17.56
2016-12-28T01:20:57.152Z,17.65
2016-12-28T01:21:37.738Z,17.56
2016-12-28T01:22:18.312Z,17.6
2016-12-28T01:22:58.876Z,17.64
2016-12-28T01:23:39.443Z,17.63
2016-12-28T01:24:20.022Z,17.63
2016-12-28T01:25:00.601Z,17.65
2016-12-28T01:25:41.162Z,17.6
2016-12-28T01:26:21.726Z,17.63
2016-12-28T01:27:02.292Z,17.65
2016-12-28T01:27:42.874Z,17.63
2016-12-28T01:28:23.452Z,17.63
2016-12-28T01:29:04.034Z,17.67
2016-12-28T01:29:44.609Z,17.6
2016-12-28T01:30:25.191Z,17.59
2016-12-28T01:31:05.771Z,17.64
2016-12-28T01:31:46.351Z,17.63
2016-12-28T01:32:26.923Z,17.59
2016-12-28T01:33:07.493Z,17.63
2016-12-28T01:33:48.070Z,17.63
2016-12-28T01:34:28.638Z,17.67
2016-12-28T01:35:09.209Z,17.65
2016-12-28T01:35:49.788Z,17.63
2016-12-28T01:36:30.364Z,17.63
2016-12-28T01:37:10.933Z,17.63
2016-12-28T01:37:51.510Z,17.6
2016-12-28T01:38:32.087Z,17.68
2016-12-28T01:39:12.665Z,17.64
2016-12-28T01:39:53.246Z,17.6
2016-12-28T01:40:33.833Z,17.63
2016-12-28T01:41:14.404Z,17.59
2016-12-28T01:41:54.974Z,17.65
2016-12-28T01:42:35.552Z,17.6
2016-12-28T01:43:16.130Z,17.64
2016-12-28T01:43:56.689Z,17.57
2016-12-28T01:44:37.291Z,17.63
2016-12-28T01:45:17.871Z,17.63
2016-12-28T01:45:58.451Z,17.57
2016-12-28T01:46:39.026Z,17.65
2016-12-28T01:47:19.599Z,17.57
2016-12-28T01:48:00.215Z,17.57
2016-12-28T01:48:40.789Z,17.63
2016-12-28T01:49:21.365Z,17.65
2016-12-28T01:50:01.928Z,17.63
2016-12-28T01:50:42.514Z,17.6
2016-12-28T01:51:23.095Z,17.65
2016-12-28T01:52:03.657Z,17.6
2016-12-28T01:52:44.221Z,17.57
2016-12-28T01:53:24.796Z,17.63
2016-12-28T01:54:05.370Z,17.59
2016-12-28T01:54:45.934Z,17.56
2016-12-28T01:55:26.498Z,17.63
2016-12-28T01:56:07.072Z,17.59
2016-12-28T01:56:47.650Z,17.64
2016-12-28T01:57:28.232Z,17.63
2016-12-28T01:58:08.817Z,17.65
2016-12-28T01:58:49.391Z,17.63
2016-12-28T01:59:29.968Z,17.59
2016-12-28T02:00:10.543Z,17.63
2016-12-28T02:00:51.117Z,17.6
2016-12-28T02:01:31.697Z,17.57
2016-12-28T02:02:12.273Z,17.63
2016-12-28T02:02:52.851Z,17.67
2016-12-28T02:03:33.424Z,17.63
2016-12-28T02:04:13.996Z,17.65
2016-12-28T02:04:54.581Z,17.65
2016-12-28T02:05:35.149Z,17.63
2016-12-28T02:06:15.726Z,17.6
2016-12-28T02:06:56.301Z,17.6
2016-12-28T02:07:36.902Z,17.63
2016-12-28T02:08:17.485Z,17.63
2016-12-28T02:08:58.057Z,17.64
2016-12-28T02:09:38.648Z,17.54
2016-12-28T02:10:19.226Z,17.6
2016-12-28T02:10:59.784Z,17.57
2016-12-28T02:11:40.357Z,17.63
2016-12-28T02:12:20.922Z,17.56
2016-12-28T02:13:01.496Z,17.65
2016-12-28T02:13:42.096Z,17.56
2016-12-28T02:14:22.665Z,17.6
2016-12-28T02:15:03.250Z,17.57
2016-12-28T02:15:43.829Z,17.64
2016-12-28T02:16:24.401Z,17.6
2016-12-28T02:17:04.968Z,17.63
2016-12-28T02:17:45.533Z,17.64
2016-12-28T02:18:26.106Z,17.6
2016-12-28T02:19:06.682Z,17.68
2016-12-28T02:19:47.252Z,17.65
2016-12-28T02:20:27.825Z,17.63
2016-12-28T02:21:08.393Z,17.64
2016-12-28T02:21:48.978Z,17.6
2016-12-28T02:22:29.547Z,17.56
2016-12-28T02:23:10.116Z,17.63
2016-12-28T02:23:50.704Z,17.6
2016-12-28T02:24:31.292Z,17.57
2016-12-28T02:25:11.859Z,17.6
2016-12-28T02:25:52.417Z,17.63
2016-12-28T02:26:32.990Z,17.63
2016-12-28T02:27:13.551Z,17.59
2016-12-28T02:27:54.130Z,17.6
2016-12-28T02:28:34.714Z,17.59
2016-12-28T02:29:15.293Z,17.57
2016-12-28T02:29:55.872Z,17.63
2016-12-28T02:30:36.442Z,17.59
2016-12-28T02:31:17.016Z,17.56
2016-12-28T02:32:04.250Z,17.56
2016-12-28T02:32:45.033Z,17.59
2016-12-28T02:33:25.610Z,17.51
2016-12-28T02:34:06.184Z,17.6
2016-12-28T02:34:46.764Z,17.56
2016-12-28T02:35:27.336Z,17.52
2016-12-28T02:36:07.923Z,17.56
2016-12-28T02:36:48.488Z,17.59
2016-12-28T02:37:29.051Z,17.54
2016-12-28T02:38:09.629Z,17.46
2016-12-28T02:38:50.213Z,17.56
2016-12-28T02:39:30.780Z,17.56
2016-12-28T02:40:11.337Z,17.56
2016-12-28T02:40:51.919Z,17.59
2016-12-28T02:41:32.504Z,17.52
2016-12-28T02:42:13.071Z,17.49
2016-12-28T02:42:53.633Z,17.54
2016-12-28T02:43:34.194Z,17.59
2016-12-28T02:44:14.772Z,17.56
2016-12-28T02:44:55.348Z,17.56
2016-12-28T02:45:35.934Z,17.52
2016-12-28T02:46:16.506Z,17.59
2016-12-28T02:46:57.072Z,17.59
2016-12-28T02:47:37.649Z,17.54
2016-12-28T02:48:18.229Z,17.57
2016-12-28T02:48:58.802Z,17.54
2016-12-28T02:49:39.380Z,17.52
2016-12-28T02:50:19.958Z,17.46
2016-12-28T02:51:00.530Z,17.45
2016-12-28T02:51:41.106Z,17.56
2016-12-28T02:52:21.684Z,17.54
2016-12-28T02:53:02.256Z,17.56
2016-12-28T02:53:42.822Z,17.57
2016-12-28T02:54:23.406Z,17.48
2016-12-28T02:55:03.978Z,17.54
2016-12-28T02:55:44.550Z,17.54
2016-12-28T02:56:25.133Z,17.49
2016-12-28T02:57:05.708Z,17.57
2016-12-28T02:57:46.284Z,17.44
2016-12-28T02:58:26.872Z,17.51
2016-12-28T02:59:07.449Z,17.52
2016-12-28T02:59:48.009Z,17.42
2016-12-28T03:00:28.586Z,17.52
2016-12-28T03:01:09.158Z,17.51
2016-12-28T03:01:49.728Z,17.57
2016-12-28T03:02:30.307Z,17.49
2016-12-28T03:03:10.890Z,17.57
2016-12-28T03:03:51.453Z,17.42
2016-12-28T03:04:32.021Z,17.48
2016-12-28T03:05:12.597Z,17.51
2016-12-28T03:05:53.175Z,17.57
2016-12-28T03:06:33.747Z,17.52
2016-12-28T03:07:14.333Z,17.57
2016-12-28T03:07:54.904Z,17.54
2016-12-28T03:08:35.486Z,17.51
2016-12-28T03:09:16.056Z,17.56
2016-12-28T03:09:56.637Z,17.45
2016-12-28T03:10:37.208Z,17.52
2016-12-28T03:11:17.784Z,17.56
2016-12-28T03:11:58.354Z,17.56
2016-12-28T03:12:38.920Z,17.44
2016-12-28T03:13:19.502Z,17.51
2016-12-28T03:14:00.078Z,17.49
2016-12-28T03:14:40.649Z,17.51
2016-12-28T03:15:21.237Z,17.44
2016-12-28T03:16:01.812Z,17.54
2016-12-28T03:16:42.388Z,17.46
2016-12-28T03:17:22.964Z,17.44
2016-12-28T03:18:03.546Z,17.49
2016-12-28T03:18:44.125Z,17.41
2016-12-28T03:19:24.692Z,17.45
2016-12-28T03:20:05.270Z,17.45
2016-12-28T03:20:45.850Z,17.51
2016-12-28T03:21:26.427Z,17.45
2016-12-28T03:22:06.999Z,17.52
2016-12-28T03:22:47.575Z,17.42
2016-12-28T03:23:28.148Z,17.42
2016-12-28T03:24:08.722Z,17.44
2016-12-28T03:24:49.298Z,17.42
2016-12-28T03:25:29.854Z,17.44
2016-12-28T03:26:10.445Z,17.42
2016-12-28T03:26:51.025Z,17.54
2016-12-28T03:27:31.593Z,17.42
2016-12-28T03:28:12.166Z,17.48
2016-12-28T03:28:52.740Z,17.48
2016-12-28T03:29:33.323Z,17.48
2016-12-28T03:30:13.900Z,17.44
2016-12-28T03:30:54.458Z,17.44
2016-12-28T03:31:35.041Z,17.44
2016-12-28T03:32:15.618Z,17.42
2016-12-28T03:32:56.190Z,17.45
2016-12-28T03:33:36.762Z,17.51
2016-12-28T03:34:17.332Z,17.48
2016-12-28T03:34:57.913Z,17.44
2016-12-28T03:35:38.486Z,17.42
2016-12-28T03:36:19.047Z,17.41
2016-12-28T03:36:59.621Z,17.44
2016-12-28T03:37:40.190Z,17.38
2016-12-28T03:38:20.768Z,17.44
2016-12-28T03:39:01.360Z,17.41
2016-12-28T03:39:41.922Z,17.44
2016-12-28T03:40:22.505Z,17.41
2016-12-28T03:41:03.076Z,17.41
2016-12-28T03:41:43.649Z,17.41
2016-12-28T03:42:24.225Z,17.36
2016-12-28T03:43:04.801Z,17.42
2016-12-28T03:43:45.384Z,17.42
2016-12-28T03:44:25.968Z,17.44
2016-12-28T03:45:06.539Z,17.38
2016-12-28T03:45:47.111Z,17.44
2016-12-28T03:46:27.692Z,17.36
2016-12-28T03:47:08.266Z,17.48
2016-12-28T03:47:48.837Z,17.45
2016-12-28T03:48:29.424Z,17.41
2016-12-28T03:49:10.009Z,17.36
2016-12-28T03:49:50.568Z,17.44
2016-12-28T03:50:31.163Z,17.38
2016-12-28T03:51:11.734Z,17.38
2016-12-28T03:51:52.299Z,17.38
2016-12-28T03:52:32.878Z,17.38
2016-12-28T03:53:13.443Z,17.34
2016-12-28T03:53:54.027Z,17.42
2016-12-28T03:54:34.616Z,17.33
2016-12-28T03:55:15.188Z,17.42
2016-12-28T03:55:55.761Z,17.38
2016-12-28T03:56:36.342Z,17.41
2016-12-28T03:57:16.914Z,17.38
2016-12-28T03:57:57.495Z,17.41
2016-12-28T03:58:38.094Z,17.42
2016-12-28T03:59:18.672Z,17.36
2016-12-28T03:59:59.252Z,17.38
2016-12-28T04:00:39.836Z,17.36
2016-12-28T04:01:20.403Z,17.38
2016-12-28T04:02:01.002Z,17.38
2016-12-28T04:02:41.582Z,17.33
2016-12-28T04:03:22.160Z,17.41
2016-12-28T04:04:02.750Z,17.42
2016-12-28T04:04:43.323Z,17.38
2016-12-28T04:05:23.900Z,17.33
2016-12-28T04:06:04.479Z,17.38
2016-12-28T04:06:45.056Z,17.41
2016-12-28T04:07:25.623Z,17.36
2016-12-28T04:08:06.198Z,17.41
2016-12-28T04:08:46.787Z,17.41
2016-12-28T04:09:27.358Z,17.33
2016-12-28T04:10:07.948Z,17.41
2016-12-28T04:10:48.529Z,17.34
2016-12-28T04:11:29.106Z,17.34
2016-12-28T04:12:09.679Z,17.31
2016-12-28T04:12:50.252Z,17.41
2016-12-28T04:13:30.823Z,17.31
2016-12-28T04:14:11.383Z,17.38
2016-12-28T04:14:51.956Z,17.34
2016-12-28T04:15:32.533Z,17.34
2016-12-28T04:16:13.117Z,17.34
2016-12-28T04:16:53.700Z,17.34
2016-12-28T04:17:34.270Z,17.33
2016-12-28T04:18:14.837Z,17.39
2016-12-28T04:18:55.413Z,17.34
2016-12-28T04:19:35.995Z,17.38
2016-12-28T04:20:16.572Z,17.34
2016-12-28T04:20:57.134Z,17.3
2016-12-28T04:21:37.711Z,17.26
2016-12-28T04:22:18.290Z,17.29
2016-12-28T04:22:58.877Z,17.33
2016-12-28T04:23:39.463Z,17.34
2016-12-28T04:24:20.040Z,17.31
2016-12-28T04:25:00.628Z,17.33
2016-12-28T04:25:41.193Z,17.36
2016-12-28T04:26:21.771Z,17.36
2016-12-28T04:27:02.356Z,17.36
2016-12-28T04:27:42.923Z,17.36
2016-12-28T04:28:23.504Z,17.38
2016-12-28T04:29:04.085Z,17.41
2016-12-28T04:29:44.662Z,17.31
2016-12-28T04:30:25.237Z,17.41
2016-12-28T04:31:05.810Z,17.38
2016-12-28T04:31:46.384Z,17.38
2016-12-28T04:32:26.964Z,17.33
2016-12-28T04:33:07.537Z,17.3
2016-12-28T04:33:48.107Z,17.3
2016-12-28T04:34:28.678Z,17.24
2016-12-28T04:35:09.256Z,17.31
2016-12-28T04:35:49.832Z,17.23
2016-12-28T04:36:30.397Z,17.27
2016-12-28T04:37:10.963Z,17.27
2016-12-28T04:37:51.556Z,17.23
2016-12-28T04:38:32.136Z,17.29
2016-12-28T04:39:12.728Z,17.3
2016-12-28T04:39:53.300Z,17.29
2016-12-28T04:40:33.875Z,17.29
2016-12-28T04:41:14.450Z,17.23
2016-12-28T04:41:55.025Z,17.26
2016-12-28T04:42:35.611Z,17.3
2016-12-28T04:43:16.189Z,17.26
2016-12-28T04:43:56.754Z,17.26
2016-12-28T04:44:37.335Z,17.24
2016-12-28T04:45:17.902Z,17.26
2016-12-28T04:45:58.498Z,17.27
2016-12-28T04:46:39.070Z,17.27
2016-12-28T04:47:19.652Z,17.27
2016-12-28T04:48:00.222Z,17.29
2016-12-28T04:48:40.800Z,17.26
2016-12-28T04:49:21.374Z,17.3
2016-12-28T04:50:01.965Z,17.26
2016-12-28T04:50:42.537Z,17.24
2016-12-28T04:51:23.109Z,17.29
2016-12-28T04:52:03.684Z,17.3
2016-12-28T04:52:44.268Z,17.29
2016-12-28T04:53:24.846Z,17.26
2016-12-28T04:54:05.418Z,17.24
2016-12-28T04:54:45.987Z,17.29
2016-12-28T04:55:26.571Z,17.19
2016-12-28T04:56:07.160Z,17.26
2016-12-28T04:56:47.728Z,17.26
2016-12-28T04:57:28.312Z,17.26
2016-12-28T04:58:08.886Z,17.2
2016-12-28T04:58:49.461Z,17.2
2016-12-28T04:59:30.018Z,17.2
2016-12-28T05:00:10.574Z,17.26
2016-12-28T05:00:51.144Z,17.23
2016-12-28T05:01:31.718Z,17.23
2016-12-28T05:02:12.286Z,17.19
2016-12-28T05:02:52.859Z,17.23
2016-12-28T05:03:33.425Z,17.2
2016-12-28T05:04:13.988Z,17.19
2016-12-28T05:04:54.550Z,17.26
2016-12-28T05:05:35.124Z,17.27
2016-12-28T05:06:15.695Z,17.23
2016-12-28T05:06:56.270Z,17.19
2016-12-28T05:07:36.825Z,17.22
2016-12-28T05:08:17.387Z,17.23
2016-12-28T05:08:57.962Z,17.16
2016-12-28T05:09:38.547Z,17.24
2016-12-28T05:10:19.117Z,17.23
2016-12-28T05:10:59.683Z,17.23
2016-12-28T05:11:40.243Z,17.29
2016-12-28T05:12:20.868Z,17.15
2016-12-28T05:13:01.443Z,17.19
2016-12-28T05:13:42.024Z,17.15
2016-12-28T05:14:22.611Z,17.15
2016-12-28T05:15:03.183Z,17.19
2016-12-28T05:15:43.743Z,17.19
2016-12-28T05:16:24.312Z,17.16
2016-12-28T05:17:04.892Z,17.12
2016-12-28T05:17:45.463Z,17.15
2016-12-28T05:18:26.033Z,17.14
2016-12-28T05:19:06.594Z,17.12
2016-12-28T05:19:47.157Z,17.2
2016-12-28T05:20:27.730Z,17.11
2016-12-28T05:21:08.307Z,17.15
2016-12-28T05:21:48.896Z,17.15
2016-12-28T05:22:29.455Z,17.19
2016-12-28T05:23:10.032Z,17.15
2016-12-28T05:23:50.616Z,17.11
2016-12-28T05:24:31.198Z,17.16
2016-12-28T05:25:11.760Z,17.2
2016-12-28T05:25:52.337Z,17.14
2016-12-28T05:26:32.911Z,17.15
2016-12-28T05:27:13.498Z,17.19
2016-12-28T05:27:54.067Z,17.14
2016-12-28T05:28:34.651Z,17.19
2016-12-28T05:29:15.216Z,17.09
2016-12-28T05:29:55.798Z,17.12
2016-12-28T05:30:36.365Z,17.15
2016-12-28T05:31:16.929Z,17.16
2016-12-28T05:31:57.505Z,17.22
2016-12-28T05:32:38.082Z,17.19
2016-12-28T05:33:18.659Z,17.11
2016-12-28T05:33:59.228Z,17.12
2016-12-28T05:34:39.810Z,17.15
2016-12-28T05:35:20.387Z,17.15
2016-12-28T05:36:00.969Z,17.12
2016-12-28T05:36:41.541Z,17.19
2016-12-28T05:37:22.122Z,17.16
2016-12-28T05:38:02.700Z,17.15
2016-12-28T05:38:43.271Z,17.14
2016-12-28T05:39:23.846Z,17.12
2016-12-28T05:40:04.416Z,17.11
2016-12-28T05:40:44.998Z,17.14
2016-12-28T05:41:25.574Z,17.15
2016-12-28T05:42:06.141Z,17.19
2016-12-28T05:42:46.709Z,17.08
2016-12-28T05:43:27.285Z,17.08
2016-12-28T05:44:07.857Z,17.11
2016-12-28T05:44:48.432Z,17.11
2016-12-28T05:45:29.009Z,17.06
2016-12-28T05:46:09.596Z,17.05
2016-12-28T05:46:50.171Z,17.14
2016-12-28T05:47:30.735Z,17.19
2016-12-28T05:48:11.301Z,17.14
2016-12-28T05:48:51.882Z,17.14
2016-12-28T05:49:32.459Z,17.15
2016-12-28T05:50:13.036Z,17.19
2016-12-28T05:50:53.608Z,17.16
2016-12-28T05:51:34.168Z,17.15
2016-12-28T05:52:14.746Z,17.16
2016-12-28T05:52:55.327Z,17.15
2016-12-28T05:53:35.897Z,17.12
2016-12-28T05:54:16.458Z,17.15
2016-12-28T05:54:57.024Z,17.15
2016-12-28T05:55:37.598Z,17.16
2016-12-28T05:56:18.171Z,17.15
2016-12-28T05:56:58.751Z,17.11
2016-12-28T05:57:39.321Z,17.14
2016-12-28T05:58:19.879Z,17.16
2016-12-28T05:59:00.450Z,17.11
2016-12-28T05:59:41.036Z,17.19
2016-12-28T06:00:21.612Z,17.16
2016-12-28T06:01:02.196Z,17.14
2016-12-28T06:01:42.768Z,17.11
2016-12-28T06:02:23.333Z,17.12
2016-12-28T06:03:03.911Z,17.09
2016-12-28T06:03:44.483Z,17.09
2016-12-28T06:04:25.047Z,17.11
2016-12-28T06:05:05.615Z,17.14
2016-12-28T06:05:46.195Z,17.11
2016-12-28T06:06:26.783Z,17.08
2016-12-28T06:07:07.361Z,17.11
2016-12-28T06:07:47.927Z,17.05
2016-12-28T06:08:28.511Z,17.05
2016-12-28T06:09:09.077Z,17.01
2016-12-28T06:09:49.644Z,17.06
2016-12-28T06:10:30.223Z,17.08
2016-12-28T06:11:10.801Z,17.05
2016-12-28T06:11:51.376Z,17.02
2016-12-28T06:12:31.957Z,17.05
2016-12-28T06:13:12.540Z,17.08
2016-12-28T06:13:53.119Z,17.05
2016-12-28T06:14:33.687Z,17.04
2016-12-28T06:15:14.268Z,17.06
2016-12-28T06:15:54.850Z,17.06
2016-12-28T06:16:35.422Z,17.11
2016-12-28T06:17:16.003Z,17.11
2016-12-28T06:17:56.573Z,17.04
2016-12-28T06:18:37.155Z,17.05
2016-12-28T06:19:17.731Z,17.05
2016-12-28T06:19:58.307Z,17.05
2016-12-28T06:20:38.888Z,17.02
2016-12-28T06:21:19.470Z,17.08
2016-12-28T06:22:00.050Z,17.05
2016-12-28T06:22:40.627Z,17.05
2016-12-28T06:23:21.214Z,17.04
2016-12-28T06:24:01.787Z,17.04
2016-12-28T06:24:42.370Z,17.06
2016-12-28T06:25:22.952Z,17.04
2016-12-28T06:26:03.534Z,17.11
2016-12-28T06:26:44.114Z,17.02
2016-12-28T06:27:24.697Z,17.12
2016-12-28T06:28:05.295Z,17.06
2016-12-28T06:28:45.897Z,17.09
2016-12-28T06:29:26.480Z,17.09
2016-12-28T06:30:07.077Z,17.11
2016-12-28T06:30:47.640Z,17.11
2016-12-28T06:31:28.227Z,17.09
2016-12-28T06:32:08.806Z,17.11
2016-12-28T06:32:49.383Z,17.09
2016-12-28T06:33:29.950Z,17.11
2016-12-28T06:34:10.535Z,17.06
2016-12-28T06:34:51.142Z,17.05
2016-12-28T06:35:31.714Z,17.11
2016-12-28T06:36:12.296Z,17.05
2016-12-28T06:36:52.863Z,17.14
2016-12-28T06:37:33.414Z,17.09
2016-12-28T06:38:13.973Z,17.06
2016-12-28T06:38:54.541Z,17.06
2016-12-28T06:39:35.119Z,17.08
2016-12-28T06:40:15.693Z,17.05
2016-12-28T06:40:56.276Z,17.11
2016-12-28T06:41:36.852Z,17.12
2016-12-28T06:42:17.423Z,17.15
2016-12-28T06:42:58.005Z,17.12
2016-12-28T06:43:38.575Z,17.14
2016-12-28T06:44:19.146Z,17.06
2016-12-28T06:44:59.720Z,17.19
2016-12-28T06:45:40.299Z,17.06
2016-12-28T06:46:20.878Z,17.15
2016-12-28T06:47:01.461Z,17.14
2016-12-28T06:47:42.041Z,17.12
2016-12-28T06:48:22.613Z,17.12
2016-12-28T06:49:03.198Z,17.15
2016-12-28T06:49:43.766Z,17.12
2016-12-28T06:50:24.339Z,17.12
2016-12-28T06:51:04.910Z,17.12
2016-12-28T06:51:45.483Z,17.08
2016-12-28T06:52:26.061Z,17.09
2016-12-28T06:53:06.637Z,17.11
2016-12-28T06:53:47.212Z,17.12
2016-12-28T06:54:27.799Z,17.08
2016-12-28T06:55:08.372Z,17.09
2016-12-28T06:55:48.941Z,17.06
2016-12-28T06:56:29.522Z,17.09
2016-12-28T06:57:10.093Z,17.09
2016-12-28T06:57:50.662Z,17.02
2016-12-28T06:58:31.240Z,17.08
2016-12-28T06:59:11.808Z,17.12
2016-12-28T06:59:52.381Z,17.15
2016-12-28T07:00:32.954Z,17.11
2016-12-28T07:01:13.525Z,17.16
2016-12-28T07:01:54.128Z,17.23
2016-12-28T07:02:34.700Z,17.12
2016-12-28T07:03:15.267Z,17.14
2016-12-28T07:03:55.841Z,17.2
2016-12-28T07:04:36.422Z,17.16
2016-12-28T07:05:16.988Z,17.15
2016-12-28T07:05:57.554Z,17.15
2016-12-28T07:06:38.135Z,17.15
2016-12-28T07:07:18.701Z,17.3
2016-12-28T07:07:59.290Z,17.12
2016-12-28T07:08:39.884Z,17.19
2016-12-28T07:09:20.444Z,17.26
2016-12-28T07:10:01.018Z,17.2
2016-12-28T07:10:41.605Z,17.23
2016-12-28T07:11:22.167Z,17.24
2016-12-28T07:12:02.732Z,17.24
2016-12-28T07:12:43.314Z,17.29
2016-12-28T07:13:23.896Z,17.29
2016-12-28T07:14:04.471Z,17.2
2016-12-28T07:14:45.045Z,17.19
2016-12-28T07:15:25.628Z,17.19
2016-12-28T07:16:06.205Z,17.23
2016-12-28T07:16:46.763Z,17.24
2016-12-28T07:17:27.344Z,17.19
2016-12-28T07:18:07.917Z,17.14
2016-12-28T07:18:48.483Z,17.2
2016-12-28T07:19:29.054Z,17.15
2016-12-28T07:20:09.630Z,17.3
2016-12-28T07:20:50.199Z,17.23
2016-12-28T07:21:30.784Z,17.2
2016-12-28T07:22:11.362Z,17.24
2016-12-28T07:22:51.945Z,17.27
2016-12-28T07:23:32.519Z,17.26
2016-12-28T07:24:13.092Z,17.2
2016-12-28T07:24:53.696Z,17.27
2016-12-28T07:25:34.278Z,17.29
2016-12-28T07:26:14.840Z,17.27
2016-12-28T07:26:55.419Z,17.27
2016-12-28T07:27:35.993Z,17.3
2016-12-28T07:28:16.567Z,17.26
2016-12-28T07:28:57.145Z,17.29
2016-12-28T07:29:37.722Z,17.27
2016-12-28T07:30:18.295Z,17.19
2016-12-28T07:30:58.863Z,17.27
2016-12-28T07:31:39.443Z,17.26
2016-12-28T07:32:20.005Z,17.34
2016-12-28T07:33:00.562Z,17.22
2016-12-28T07:33:41.128Z,17.26
2016-12-28T07:34:21.701Z,17.27
2016-12-28T07:35:02.261Z,17.29
2016-12-28T07:35:42.831Z,17.26
2016-12-28T07:36:23.403Z,17.24
2016-12-28T07:37:04.005Z,17.24
2016-12-28T07:37:44.572Z,17.27
2016-12-28T07:38:25.137Z,17.24
2016-12-28T07:39:05.726Z,17.22
2016-12-28T07:39:46.300Z,17.24
2016-12-28T07:40:26.878Z,17.31
2016-12-28T07:41:07.452Z,17.31
2016-12-28T07:41:48.022Z,17.38
2016-12-28T07:42:28.592Z,17.38
2016-12-28T07:43:09.165Z,17.38
2016-12-28T07:43:49.737Z,17.34
2016-12-28T07:44:30.295Z,17.34
2016-12-28T07:45:10.879Z,17.34
2016-12-28T07:45:51.465Z,17.42
2016-12-28T07:46:32.031Z,17.38
2016-12-28T07:47:12.604Z,17.33
2016-12-28T07:47:53.170Z,17.41
2016-12-28T07:48:33.748Z,17.45
2016-12-28T07:49:14.320Z,17.46
2016-12-28T07:49:54.885Z,17.39
2016-12-28T07:50:35.463Z,17.48
2016-12-28T07:51:16.046Z,17.39
2016-12-28T07:51:56.625Z,17.42
2016-12-28T07:52:37.197Z,17.33
2016-12-28T07:53:17.762Z,17.41
2016-12-28T07:53:58.341Z,17.42
2016-12-28T07:54:38.918Z,17.42
2016-12-28T07:55:19.498Z,17.34
2016-12-28T07:56:00.065Z,17.41
2016-12-28T07:56:40.639Z,17.46
2016-12-28T07:57:21.214Z,17.51
2016-12-28T07:58:01.785Z,17.46
2016-12-28T07:58:42.370Z,17.44
2016-12-28T07:59:22.951Z,17.41
2016-12-28T08:00:03.521Z,17.42
2016-12-28T08:00:44.086Z,17.48
2016-12-28T08:01:24.664Z,17.46
2016-12-28T08:02:05.243Z,17.45
2016-12-28T08:02:45.816Z,17.44
2016-12-28T08:03:26.387Z,17.45
2016-12-28T08:04:06.958Z,17.56
2016-12-28T08:06:47.934Z,17.67
2016-12-28T08:07:28.502Z,17.71
2016-12-28T08:08:09.080Z,17.7
2016-12-28T08:08:49.656Z,17.67
2016-12-28T08:09:30.232Z,17.71
2016-12-28T08:10:10.808Z,17.63
2016-12-28T08:10:51.389Z,17.63
2016-12-28T08:11:31.968Z,17.63
2016-12-28T08:12:12.543Z,17.63
2016-12-28T08:12:53.274Z,17.56
2016-12-28T08:13:34.010Z,17.59
2016-12-28T08:14:14.578Z,17.63
2016-12-28T08:14:55.145Z,17.59
2016-12-28T08:15:35.721Z,17.57
2016-12-28T08:16:16.283Z,17.65
2016-12-28T08:16:56.863Z,17.64
2016-12-28T08:17:37.436Z,17.6
2016-12-28T08:18:18.006Z,17.57
2016-12-28T08:18:58.577Z,17.65
2016-12-28T08:19:39.166Z,17.68
2016-12-28T08:20:19.736Z,17.65
2016-12-28T08:21:00.304Z,17.7
2016-12-28T08:21:40.884Z,17.56
2016-12-28T08:22:21.447Z,17.59
2016-12-28T08:23:02.031Z,17.65
2016-12-28T08:23:42.597Z,17.7
2016-12-28T08:24:23.182Z,17.56
2016-12-28T08:25:03.764Z,17.6
2016-12-28T08:25:44.339Z,17.67
2016-12-28T08:26:24.917Z,17.7
2016-12-28T08:27:05.485Z,17.67
2016-12-28T08:27:46.053Z,17.7
2016-12-28T08:28:26.629Z,17.64
2016-12-28T08:29:07.206Z,17.67
2016-12-28T08:29:47.790Z,17.6
2016-12-28T08:30:28.383Z,17.6
2016-12-28T08:31:08.964Z,17.7
2016-12-28T08:31:49.532Z,17.57
2016-12-28T08:32:30.107Z,17.64
2016-12-28T08:33:10.683Z,17.57
2016-12-28T08:33:51.268Z,17.64
2016-12-28T08:34:31.853Z,17.56
2016-12-28T08:35:12.430Z,17.64
2016-12-28T08:35:53.000Z,17.6
2016-12-28T08:36:33.575Z,17.7
2016-12-28T08:37:14.157Z,17.67
2016-12-28T08:37:54.737Z,17.67
2016-12-28T08:38:35.312Z,17.64
2016-12-28T08:39:15.882Z,17.67
2016-12-28T08:39:56.459Z,17.65
2016-12-28T08:40:37.043Z,17.68
2016-12-28T08:41:17.623Z,17.01
2016-12-28T08:41:58.201Z,15.75
2016-12-28T08:42:38.796Z,14.29
2016-12-28T08:43:19.379Z,12.97
2016-12-28T08:43:59.951Z,11.9
2016-12-28T08:44:40.530Z,10.82
2016-12-28T08:45:21.115Z,9.8
2016-12-28T08:46:01.692Z,9.03
2016-12-28T08:46:42.257Z,8.26